sensor_id;sensor_type;location;lat;lon;timestamp;temperature;humidity
15991;DHT22;8100;50.994;4.538;2023-07-29T00:00:21;18.20;99.90
15991;DHT22;8100;50.994;4.538;2023-07-29T00:03:08;17.80;99.90
15991;DHT22;8100;50.994;4.538;2023-07-29T00:05:56;17.70;99.90
15991;DHT22;8100;50.994;4.538;2023-07-29T00:08:44;17.70;99.90
15991;DHT22;8100;50.994;4.538;2023-07-29T00:11:32;18.30;99.90
15991;DHT22;8100;50.994;4.538;2023-07-29T00:14:19;18.10;99.90
15991;DHT22;8100;50.994;4.538;2023-07-29T00:17:06;18.40;99.90
15991;DHT22;8100;50.994;4.538;2023-07-29T00:19:54;18.30;99.90
15991;DHT22;8100;50.994;4.538;2023-07-29T00:22:41;18.10;99.90
15991;DHT22;8100;50.994;4.538;2023-07-29T00:25:30;18.10;99.90
15991;DHT22;8100;50.994;4.538;2023-07-29T00:28:17;18.00;99.90
15991;DHT22;8100;50.994;4.538;2023-07-29T00:31:04;18.00;99.90
15991;DHT22;8100;50.994;4.538;2023-07-29T00:33:51;17.80;99.90
15991;DHT22;8100;50.994;4.538;2023-07-29T00:36:39;17.70;99.90
15991;DHT22;8100;50.994;4.538;2023-07-29T00:39:26;17.90;99.90
15991;DHT22;8100;50.994;4.538;2023-07-29T00:42:15;17.90;99.90
15991;DHT22;8100;50.994;4.538;2023-07-29T00:45:02;17.60;99.90
15991;DHT22;8100;50.994;4.538;2023-07-29T00:47:52;17.60;99.90
15991;DHT22;8100;50.994;4.538;2023-07-29T00:50:39;17.80;99.90
15991;DHT22;8100;50.994;4.538;2023-07-29T00:53:26;17.60;99.90
15991;DHT22;8100;50.994;4.538;2023-07-29T00:56:13;17.70;99.90
15991;DHT22;8100;50.994;4.538;2023-07-29T00:59:03;17.40;99.90
15991;DHT22;8100;50.994;4.538;2023-07-29T01:01:50;17.60;99.90
15991;DHT22;8100;50.994;4.538;2023-07-29T01:04:39;17.50;99.90
15991;DHT22;8100;50.994;4.538;2023-07-29T01:07:31;17.50;99.90
15991;DHT22;8100;50.994;4.538;2023-07-29T01:10:25;17.30;99.90
15991;DHT22;8100;50.994;4.538;2023-07-29T01:13:20;17.40;99.90
15991;DHT22;8100;50.994;4.538;2023-07-29T01:16:15;17.50;99.90
15991;DHT22;8100;50.994;4.538;2023-07-29T01:19:06;17.30;99.90
15991;DHT22;8100;50.994;4.538;2023-07-29T01:21:55;17.20;99.90
15991;DHT22;8100;50.994;4.538;2023-07-29T01:24:44;17.10;99.90
15991;DHT22;8100;50.994;4.538;2023-07-29T01:27:31;17.40;99.90
15991;DHT22;8100;50.994;4.538;2023-07-29T01:30:19;17.00;99.90
15991;DHT22;8100;50.994;4.538;2023-07-29T01:33:13;17.00;99.90
15991;DHT22;8100;50.994;4.538;2023-07-29T01:36:03;16.90;99.90
15991;DHT22;8100;50.994;4.538;2023-07-29T01:38:55;17.10;99.90
15991;DHT22;8100;50.994;4.538;2023-07-29T01:41:45;17.10;99.90
15991;DHT22;8100;50.994;4.538;2023-07-29T01:44:33;17.00;99.90
15991;DHT22;8100;50.994;4.538;2023-07-29T01:47:20;17.20;99.90
15991;DHT22;8100;50.994;4.538;2023-07-29T01:50:09;17.20;99.90
15991;DHT22;8100;50.994;4.538;2023-07-29T01:52:56;16.90;99.90
15991;DHT22;8100;50.994;4.538;2023-07-29T01:55:44;17.10;99.90
15991;DHT22;8100;50.994;4.538;2023-07-29T01:58:32;16.70;99.90
15991;DHT22;8100;50.994;4.538;2023-07-29T02:01:20;17.10;99.90
15991;DHT22;8100;50.994;4.538;2023-07-29T02:04:07;17.00;99.90
15991;DHT22;8100;50.994;4.538;2023-07-29T02:06:54;16.60;99.90
15991;DHT22;8100;50.994;4.538;2023-07-29T02:09:42;16.70;99.90
15991;DHT22;8100;50.994;4.538;2023-07-29T02:12:29;16.50;99.90
15991;DHT22;8100;50.994;4.538;2023-07-29T02:15:18;16.80;99.90
15991;DHT22;8100;50.994;4.538;2023-07-29T02:18:05;16.60;99.90
15991;DHT22;8100;50.994;4.538;2023-07-29T02:20:53;16.90;99.90
15991;DHT22;8100;50.994;4.538;2023-07-29T02:23:40;16.80;99.90
15991;DHT22;8100;50.994;4.538;2023-07-29T02:26:27;16.60;99.90
15991;DHT22;8100;50.994;4.538;2023-07-29T02:29:14;16.80;99.90
15991;DHT22;8100;50.994;4.538;2023-07-29T02:32:03;16.50;99.90
15991;DHT22;8100;50.994;4.538;2023-07-29T02:34:50;16.50;99.90
15991;DHT22;8100;50.994;4.538;2023-07-29T02:37:38;16.60;99.90
15991;DHT22;8100;50.994;4.538;2023-07-29T02:40:25;16.90;99.90
15991;DHT22;8100;50.994;4.538;2023-07-29T02:43:12;16.50;99.90
15991;DHT22;8100;50.994;4.538;2023-07-29T02:46:00;16.70;99.90
15991;DHT22;8100;50.994;4.538;2023-07-29T02:48:49;16.80;99.90
15991;DHT22;8100;50.994;4.538;2023-07-29T02:51:36;16.90;99.90
15991;DHT22;8100;50.994;4.538;2023-07-29T02:54:23;16.50;99.90
15991;DHT22;8100;50.994;4.538;2023-07-29T02:57:10;16.60;99.90
15991;DHT22;8100;50.994;4.538;2023-07-29T02:59:57;16.90;99.90
15991;DHT22;8100;50.994;4.538;2023-07-29T03:02:45;16.60;99.90
15991;DHT22;8100;50.994;4.538;2023-07-29T03:05:33;17.00;99.90
15991;DHT22;8100;50.994;4.538;2023-07-29T03:08:20;16.60;99.90
15991;DHT22;8100;50.994;4.538;2023-07-29T03:11:10;16.60;99.90
15991;DHT22;8100;50.994;4.538;2023-07-29T03:13:57;16.60;99.90
15991;DHT22;8100;50.994;4.538;2023-07-29T03:16:44;16.50;99.90
15991;DHT22;8100;50.994;4.538;2023-07-29T03:19:32;16.60;99.90
15991;DHT22;8100;50.994;4.538;2023-07-29T03:22:20;16.40;99.90
15991;DHT22;8100;50.994;4.538;2023-07-29T03:25:08;16.50;99.90
15991;DHT22;8100;50.994;4.538;2023-07-29T03:27:55;16.80;99.90
15991;DHT22;8100;50.994;4.538;2023-07-29T03:30:42;16.40;99.90
15991;DHT22;8100;50.994;4.538;2023-07-29T03:33:30;16.40;99.90
15991;DHT22;8100;50.994;4.538;2023-07-29T03:36:17;16.40;99.90
15991;DHT22;8100;50.994;4.538;2023-07-29T03:39:06;16.70;99.90
15991;DHT22;8100;50.994;4.538;2023-07-29T03:41:54;16.50;99.90
15991;DHT22;8100;50.994;4.538;2023-07-29T03:44:41;16.20;99.90
15991;DHT22;8100;50.994;4.538;2023-07-29T03:47:28;16.60;99.90
15991;DHT22;8100;50.994;4.538;2023-07-29T03:50:16;16.50;99.90
15991;DHT22;8100;50.994;4.538;2023-07-29T03:53:03;16.20;99.90
15991;DHT22;8100;50.994;4.538;2023-07-29T03:55:52;16.40;99.90
15991;DHT22;8100;50.994;4.538;2023-07-29T03:58:39;16.50;99.90
15991;DHT22;8100;50.994;4.538;2023-07-29T04:01:27;16.20;99.90
15991;DHT22;8100;50.994;4.538;2023-07-29T04:04:14;16.20;99.90
15991;DHT22;8100;50.994;4.538;2023-07-29T04:07:01;16.40;99.90
15991;DHT22;8100;50.994;4.538;2023-07-29T04:09:49;16.20;99.90
15991;DHT22;8100;50.994;4.538;2023-07-29T04:12:37;16.30;99.90
15991;DHT22;8100;50.994;4.538;2023-07-29T04:15:25;16.40;99.90
15991;DHT22;8100;50.994;4.538;2023-07-29T04:18:12;16.20;99.90
15991;DHT22;8100;50.994;4.538;2023-07-29T04:20:59;16.50;99.90
15991;DHT22;8100;50.994;4.538;2023-07-29T04:23:46;16.40;99.90
15991;DHT22;8100;50.994;4.538;2023-07-29T04:26:33;16.50;99.90
15991;DHT22;8100;50.994;4.538;2023-07-29T04:29:22;16.40;99.90
15991;DHT22;8100;50.994;4.538;2023-07-29T04:32:09;16.50;99.90
15991;DHT22;8100;50.994;4.538;2023-07-29T04:34:56;16.50;99.90
15991;DHT22;8100;50.994;4.538;2023-07-29T04:37:44;16.50;99.90
15991;DHT22;8100;50.994;4.538;2023-07-29T04:40:33;16.30;99.90
15991;DHT22;8100;50.994;4.538;2023-07-29T04:43:20;16.30;99.90
15991;DHT22;8100;50.994;4.538;2023-07-29T04:46:08;16.30;99.90
15991;DHT22;8100;50.994;4.538;2023-07-29T04:48:56;16.40;99.90
15991;DHT22;8100;50.994;4.538;2023-07-29T04:51:43;16.60;99.90
15991;DHT22;8100;50.994;4.538;2023-07-29T04:54:30;16.30;99.90
15991;DHT22;8100;50.994;4.538;2023-07-29T04:57:17;16.30;99.90
15991;DHT22;8100;50.994;4.538;2023-07-29T05:00:05;16.40;99.90
15991;DHT22;8100;50.994;4.538;2023-07-29T05:02:54;16.50;99.90
15991;DHT22;8100;50.994;4.538;2023-07-29T05:05:41;16.40;99.90
15991;DHT22;8100;50.994;4.538;2023-07-29T05:08:29;16.30;99.90
15991;DHT22;8100;50.994;4.538;2023-07-29T05:11:16;16.50;99.90
15991;DHT22;8100;50.994;4.538;2023-07-29T05:14:03;16.50;99.90
15991;DHT22;8100;50.994;4.538;2023-07-29T05:16:52;16.40;99.90
15991;DHT22;8100;50.994;4.538;2023-07-29T05:19:40;16.60;99.90
15991;DHT22;8100;50.994;4.538;2023-07-29T05:22:27;16.80;99.90
15991;DHT22;8100;50.994;4.538;2023-07-29T05:25:15;16.90;99.90
15991;DHT22;8100;50.994;4.538;2023-07-29T05:28:02;17.00;99.90
15991;DHT22;8100;50.994;4.538;2023-07-29T05:30:49;17.00;99.90
15991;DHT22;8100;50.994;4.538;2023-07-29T05:33:36;17.10;99.90
15991;DHT22;8100;50.994;4.538;2023-07-29T05:36:25;16.80;99.90
15991;DHT22;8100;50.994;4.538;2023-07-29T05:39:12;16.90;99.90
15991;DHT22;8100;50.994;4.538;2023-07-29T05:41:59;17.00;99.90
15991;DHT22;8100;50.994;4.538;2023-07-29T05:44:48;16.90;99.90
15991;DHT22;8100;50.994;4.538;2023-07-29T05:47:35;16.80;99.90
15991;DHT22;8100;50.994;4.538;2023-07-29T05:50:22;16.90;99.90
15991;DHT22;8100;50.994;4.538;2023-07-29T05:53:11;17.20;99.90
15991;DHT22;8100;50.994;4.538;2023-07-29T05:55:58;17.20;99.90
15991;DHT22;8100;50.994;4.538;2023-07-29T05:58:45;17.40;99.90
15991;DHT22;8100;50.994;4.538;2023-07-29T06:01:32;17.40;99.90
15991;DHT22;8100;50.994;4.538;2023-07-29T06:04:20;17.50;99.90
15991;DHT22;8100;50.994;4.538;2023-07-29T06:07:08;17.50;99.90
15991;DHT22;8100;50.994;4.538;2023-07-29T06:09:56;17.70;99.90
15991;DHT22;8100;50.994;4.538;2023-07-29T06:12:43;17.90;99.90
15991;DHT22;8100;50.994;4.538;2023-07-29T06:15:31;17.80;99.90
15991;DHT22;8100;50.994;4.538;2023-07-29T06:18:18;17.90;99.90
15991;DHT22;8100;50.994;4.538;2023-07-29T06:21:05;18.00;99.90
15991;DHT22;8100;50.994;4.538;2023-07-29T06:23:53;17.80;99.90
15991;DHT22;8100;50.994;4.538;2023-07-29T06:26:42;17.90;99.90
15991;DHT22;8100;50.994;4.538;2023-07-29T06:29:29;18.20;99.90
15991;DHT22;8100;50.994;4.538;2023-07-29T06:32:16;18.50;99.90
15991;DHT22;8100;50.994;4.538;2023-07-29T06:35:04;18.60;99.90
15991;DHT22;8100;50.994;4.538;2023-07-29T06:37:51;18.90;99.90
15991;DHT22;8100;50.994;4.538;2023-07-29T06:40:39;18.90;99.90
15991;DHT22;8100;50.994;4.538;2023-07-29T06:43:27;18.90;99.90
15991;DHT22;8100;50.994;4.538;2023-07-29T06:46:14;18.90;99.90
15991;DHT22;8100;50.994;4.538;2023-07-29T06:49:01;19.00;99.90
15991;DHT22;8100;50.994;4.538;2023-07-29T06:51:49;18.90;99.90
15991;DHT22;8100;50.994;4.538;2023-07-29T06:54:36;19.00;99.90
15991;DHT22;8100;50.994;4.538;2023-07-29T06:57:23;19.30;99.90
15991;DHT22;8100;50.994;4.538;2023-07-29T07:00:12;19.50;99.90
15991;DHT22;8100;50.994;4.538;2023-07-29T07:02:59;19.70;99.90
15991;DHT22;8100;50.994;4.538;2023-07-29T07:05:46;19.80;99.90
15991;DHT22;8100;50.994;4.538;2023-07-29T07:08:34;19.80;99.90
15991;DHT22;8100;50.994;4.538;2023-07-29T07:11:21;20.30;99.90
15991;DHT22;8100;50.994;4.538;2023-07-29T07:14:08;20.00;99.90
15991;DHT22;8100;50.994;4.538;2023-07-29T07:16:57;19.90;99.90
15991;DHT22;8100;50.994;4.538;2023-07-29T07:19:44;20.00;99.90
15991;DHT22;8100;50.994;4.538;2023-07-29T07:22:32;20.10;99.90
15991;DHT22;8100;50.994;4.538;2023-07-29T07:25:19;20.00;99.90
15991;DHT22;8100;50.994;4.538;2023-07-29T07:28:06;19.90;99.90
15991;DHT22;8100;50.994;4.538;2023-07-29T07:30:53;19.60;99.90
15991;DHT22;8100;50.994;4.538;2023-07-29T07:33:43;19.50;99.90
15991;DHT22;8100;50.994;4.538;2023-07-29T07:36:30;19.40;99.90
15991;DHT22;8100;50.994;4.538;2023-07-29T07:39:17;19.20;99.90
15991;DHT22;8100;50.994;4.538;2023-07-29T07:42:05;19.20;99.90
15991;DHT22;8100;50.994;4.538;2023-07-29T07:44:52;19.10;99.90
15991;DHT22;8100;50.994;4.538;2023-07-29T07:47:39;19.00;99.90
15991;DHT22;8100;50.994;4.538;2023-07-29T07:50:31;19.00;99.90
15991;DHT22;8100;50.994;4.538;2023-07-29T07:53:18;19.00;99.90
15991;DHT22;8100;50.994;4.538;2023-07-29T07:56:06;19.00;99.90
15991;DHT22;8100;50.994;4.538;2023-07-29T07:58:53;19.20;99.90
15991;DHT22;8100;50.994;4.538;2023-07-29T08:01:40;19.60;99.90
15991;DHT22;8100;50.994;4.538;2023-07-29T08:04:27;20.00;99.90
15991;DHT22;8100;50.994;4.538;2023-07-29T08:07:16;20.30;99.90
15991;DHT22;8100;50.994;4.538;2023-07-29T08:10:03;20.60;99.90
15991;DHT22;8100;50.994;4.538;2023-07-29T08:12:51;20.40;99.90
15991;DHT22;8100;50.994;4.538;2023-07-29T08:15:38;20.30;99.90
15991;DHT22;8100;50.994;4.538;2023-07-29T08:18:26;20.20;99.90
15991;DHT22;8100;50.994;4.538;2023-07-29T08:21:14;20.20;99.90
15991;DHT22;8100;50.994;4.538;2023-07-29T08:24:03;20.30;99.90
15991;DHT22;8100;50.994;4.538;2023-07-29T08:26:50;20.40;99.90
15991;DHT22;8100;50.994;4.538;2023-07-29T08:29:37;20.50;99.90
15991;DHT22;8100;50.994;4.538;2023-07-29T08:32:25;21.10;99.90
15991;DHT22;8100;50.994;4.538;2023-07-29T08:35:12;21.40;99.90
15991;DHT22;8100;50.994;4.538;2023-07-29T08:37:59;21.40;99.90
15991;DHT22;8100;50.994;4.538;2023-07-29T08:40:51;21.30;99.90
15991;DHT22;8100;50.994;4.538;2023-07-29T08:43:43;21.20;99.90
15991;DHT22;8100;50.994;4.538;2023-07-29T08:46:32;21.40;99.90
15991;DHT22;8100;50.994;4.538;2023-07-29T08:49:20;21.50;99.90
15991;DHT22;8100;50.994;4.538;2023-07-29T08:52:09;21.60;99.90
15991;DHT22;8100;50.994;4.538;2023-07-29T08:54:56;21.50;99.90
15991;DHT22;8100;50.994;4.538;2023-07-29T08:57:45;21.60;99.90
15991;DHT22;8100;50.994;4.538;2023-07-29T09:00:34;21.90;99.90
15991;DHT22;8100;50.994;4.538;2023-07-29T09:03:22;22.10;99.90
15991;DHT22;8100;50.994;4.538;2023-07-29T09:06:09;22.00;99.90
15991;DHT22;8100;50.994;4.538;2023-07-29T09:08:58;22.00;99.90
15991;DHT22;8100;50.994;4.538;2023-07-29T09:11:45;22.10;99.90
15991;DHT22;8100;50.994;4.538;2023-07-29T09:14:34;21.90;99.90
15991;DHT22;8100;50.994;4.538;2023-07-29T09:17:21;22.00;99.90
15991;DHT22;8100;50.994;4.538;2023-07-29T09:20:10;21.90;99.90
15991;DHT22;8100;50.994;4.538;2023-07-29T09:22:58;22.20;99.90
15991;DHT22;8100;50.994;4.538;2023-07-29T09:25:46;22.20;99.90
15991;DHT22;8100;50.994;4.538;2023-07-29T09:28:35;22.10;99.90
15991;DHT22;8100;50.994;4.538;2023-07-29T09:31:25;22.10;99.90
15991;DHT22;8100;50.994;4.538;2023-07-29T09:34:15;22.20;99.90
15991;DHT22;8100;50.994;4.538;2023-07-29T09:37:03;22.20;99.90
15991;DHT22;8100;50.994;4.538;2023-07-29T09:39:56;22.30;99.90
15991;DHT22;8100;50.994;4.538;2023-07-29T09:42:50;22.30;99.90
15991;DHT22;8100;50.994;4.538;2023-07-29T09:45:38;22.40;99.90
15991;DHT22;8100;50.994;4.538;2023-07-29T09:48:26;22.50;99.90
15991;DHT22;8100;50.994;4.538;2023-07-29T09:51:15;22.50;99.90
15991;DHT22;8100;50.994;4.538;2023-07-29T09:54:03;22.30;99.90
15991;DHT22;8100;50.994;4.538;2023-07-29T09:56:50;22.20;99.90
15991;DHT22;8100;50.994;4.538;2023-07-29T09:59:38;21.90;99.90
15991;DHT22;8100;50.994;4.538;2023-07-29T10:02:26;21.70;99.90
15991;DHT22;8100;50.994;4.538;2023-07-29T10:05:16;21.50;99.90
15991;DHT22;8100;50.994;4.538;2023-07-29T10:08:04;21.50;99.90
15991;DHT22;8100;50.994;4.538;2023-07-29T10:10:52;21.80;99.90
15991;DHT22;8100;50.994;4.538;2023-07-29T10:13:39;22.00;99.90
15991;DHT22;8100;50.994;4.538;2023-07-29T10:16:27;22.00;99.90
15991;DHT22;8100;50.994;4.538;2023-07-29T10:19:15;22.10;99.90
15991;DHT22;8100;50.994;4.538;2023-07-29T10:22:06;22.00;99.90
15991;DHT22;8100;50.994;4.538;2023-07-29T10:24:54;21.90;99.90
15991;DHT22;8100;50.994;4.538;2023-07-29T10:27:46;21.80;99.90
15991;DHT22;8100;50.994;4.538;2023-07-29T10:30:34;22.10;99.90
15991;DHT22;8100;50.994;4.538;2023-07-29T10:33:21;22.20;99.90
15991;DHT22;8100;50.994;4.538;2023-07-29T10:36:09;22.50;99.90
15991;DHT22;8100;50.994;4.538;2023-07-29T10:38:58;23.00;99.90
15991;DHT22;8100;50.994;4.538;2023-07-29T10:41:55;23.20;99.90
15991;DHT22;8100;50.994;4.538;2023-07-29T10:44:49;23.50;99.90
15991;DHT22;8100;50.994;4.538;2023-07-29T10:47:37;23.30;99.90
15991;DHT22;8100;50.994;4.538;2023-07-29T10:50:24;23.10;99.90
15991;DHT22;8100;50.994;4.538;2023-07-29T10:53:16;23.00;99.90
15991;DHT22;8100;50.994;4.538;2023-07-29T10:56:05;23.30;99.90
15991;DHT22;8100;50.994;4.538;2023-07-29T10:58:52;23.00;99.90
15991;DHT22;8100;50.994;4.538;2023-07-29T11:01:40;23.00;99.90
15991;DHT22;8100;50.994;4.538;2023-07-29T11:04:29;22.80;99.90
15991;DHT22;8100;50.994;4.538;2023-07-29T11:07:21;22.60;99.90
15991;DHT22;8100;50.994;4.538;2023-07-29T11:10:15;22.30;99.90
15991;DHT22;8100;50.994;4.538;2023-07-29T11:13:05;21.40;99.90
15991;DHT22;8100;50.994;4.538;2023-07-29T11:15:53;21.50;99.90
15991;DHT22;8100;50.994;4.538;2023-07-29T11:18:41;21.50;99.90
15991;DHT22;8100;50.994;4.538;2023-07-29T11:21:29;21.30;99.90
15991;DHT22;8100;50.994;4.538;2023-07-29T11:24:18;21.40;99.90
15991;DHT22;8100;50.994;4.538;2023-07-29T11:27:05;21.20;99.90
15991;DHT22;8100;50.994;4.538;2023-07-29T11:29:58;21.00;99.90
15991;DHT22;8100;50.994;4.538;2023-07-29T11:32:46;20.50;99.90
15991;DHT22;8100;50.994;4.538;2023-07-29T11:35:34;20.00;99.90
15991;DHT22;8100;50.994;4.538;2023-07-29T11:38:22;19.50;99.90
15991;DHT22;8100;50.994;4.538;2023-07-29T11:41:09;20.00;99.90
15991;DHT22;8100;50.994;4.538;2023-07-29T11:43:57;20.40;99.90
15991;DHT22;8100;50.994;4.538;2023-07-29T11:46:45;21.10;99.90
15991;DHT22;8100;50.994;4.538;2023-07-29T11:49:35;21.40;99.90
15991;DHT22;8100;50.994;4.538;2023-07-29T11:52:22;21.70;99.90
15991;DHT22;8100;50.994;4.538;2023-07-29T11:55:12;21.50;99.90
15991;DHT22;8100;50.994;4.538;2023-07-29T11:58:01;21.40;99.90
15991;DHT22;8100;50.994;4.538;2023-07-29T12:00:49;21.40;99.90
15991;DHT22;8100;50.994;4.538;2023-07-29T12:03:38;21.50;99.90
15991;DHT22;8100;50.994;4.538;2023-07-29T12:06:25;21.10;99.90
15991;DHT22;8100;50.994;4.538;2023-07-29T12:09:13;20.90;99.90
15991;DHT22;8100;50.994;4.538;2023-07-29T12:12:02;20.60;99.90
15991;DHT22;8100;50.994;4.538;2023-07-29T12:14:50;20.40;99.90
15991;DHT22;8100;50.994;4.538;2023-07-29T12:17:39;20.40;99.90
15991;DHT22;8100;50.994;4.538;2023-07-29T12:20:29;20.50;99.90
15991;DHT22;8100;50.994;4.538;2023-07-29T12:23:24;20.60;99.90
15991;DHT22;8100;50.994;4.538;2023-07-29T12:26:11;20.80;99.90
15991;DHT22;8100;50.994;4.538;2023-07-29T12:28:59;20.90;99.90
15991;DHT22;8100;50.994;4.538;2023-07-29T12:31:46;21.10;99.90
15991;DHT22;8100;50.994;4.538;2023-07-29T12:34:35;21.00;99.90
15991;DHT22;8100;50.994;4.538;2023-07-29T12:37:32;21.00;99.90
15991;DHT22;8100;50.994;4.538;2023-07-29T12:40:23;21.30;99.90
15991;DHT22;8100;50.994;4.538;2023-07-29T12:43:10;21.30;99.90
15991;DHT22;8100;50.994;4.538;2023-07-29T12:45:57;21.40;99.90
15991;DHT22;8100;50.994;4.538;2023-07-29T12:48:45;21.50;99.90
15991;DHT22;8100;50.994;4.538;2023-07-29T12:51:32;21.50;99.90
15991;DHT22;8100;50.994;4.538;2023-07-29T12:54:20;21.40;99.90
15991;DHT22;8100;50.994;4.538;2023-07-29T12:57:08;21.40;99.90
15991;DHT22;8100;50.994;4.538;2023-07-29T12:59:55;21.80;99.90
15991;DHT22;8100;50.994;4.538;2023-07-29T13:02:42;22.00;99.90
15991;DHT22;8100;50.994;4.538;2023-07-29T13:05:29;22.00;99.90
15991;DHT22;8100;50.994;4.538;2023-07-29T13:08:16;21.80;99.90
15991;DHT22;8100;50.994;4.538;2023-07-29T13:11:05;22.00;99.90
15991;DHT22;8100;50.994;4.538;2023-07-29T13:13:52;22.00;99.90
15991;DHT22;8100;50.994;4.538;2023-07-29T13:16:39;22.10;99.90
15991;DHT22;8100;50.994;4.538;2023-07-29T13:19:27;22.60;99.90
15991;DHT22;8100;50.994;4.538;2023-07-29T13:22:14;23.40;99.90
15991;DHT22;8100;50.994;4.538;2023-07-29T13:25:02;24.10;99.90
15991;DHT22;8100;50.994;4.538;2023-07-29T13:27:50;24.80;99.90
15991;DHT22;8100;50.994;4.538;2023-07-29T13:30:37;25.50;99.90
15991;DHT22;8100;50.994;4.538;2023-07-29T13:33:25;25.70;99.90
15991;DHT22;8100;50.994;4.538;2023-07-29T13:36:12;25.80;99.90
15991;DHT22;8100;50.994;4.538;2023-07-29T13:38:59;25.80;99.90
15991;DHT22;8100;50.994;4.538;2023-07-29T13:41:46;25.60;99.90
15991;DHT22;8100;50.994;4.538;2023-07-29T13:44:35;25.70;99.90
15991;DHT22;8100;50.994;4.538;2023-07-29T13:47:22;25.00;99.90
15991;DHT22;8100;50.994;4.538;2023-07-29T13:50:09;24.60;99.90
15991;DHT22;8100;50.994;4.538;2023-07-29T13:52:57;23.90;99.90
15991;DHT22;8100;50.994;4.538;2023-07-29T13:55:45;23.90;99.90
15991;DHT22;8100;50.994;4.538;2023-07-29T13:58:32;24.00;99.90
15991;DHT22;8100;50.994;4.538;2023-07-29T14:01:20;24.00;99.90
15991;DHT22;8100;50.994;4.538;2023-07-29T14:04:08;23.70;99.90
15991;DHT22;8100;50.994;4.538;2023-07-29T14:06:55;23.50;99.90
15991;DHT22;8100;50.994;4.538;2023-07-29T14:09:42;23.40;99.90
15991;DHT22;8100;50.994;4.538;2023-07-29T14:12:29;23.40;99.90
15991;DHT22;8100;50.994;4.538;2023-07-29T14:15:17;23.00;99.90
15991;DHT22;8100;50.994;4.538;2023-07-29T14:18:05;23.50;99.90
15991;DHT22;8100;50.994;4.538;2023-07-29T14:20:53;23.70;99.90
15991;DHT22;8100;50.994;4.538;2023-07-29T14:23:40;23.10;99.90
15991;DHT22;8100;50.994;4.538;2023-07-29T14:26:27;23.00;99.90
15991;DHT22;8100;50.994;4.538;2023-07-29T14:29:14;23.80;99.90
15991;DHT22;8100;50.994;4.538;2023-07-29T14:32:02;24.40;99.90
15991;DHT22;8100;50.994;4.538;2023-07-29T14:34:51;24.40;99.90
15991;DHT22;8100;50.994;4.538;2023-07-29T14:37:38;24.10;99.90
15991;DHT22;8100;50.994;4.538;2023-07-29T14:40:25;23.60;99.90
15991;DHT22;8100;50.994;4.538;2023-07-29T14:43:16;23.60;99.90
15991;DHT22;8100;50.994;4.538;2023-07-29T14:46:03;23.50;99.90
15991;DHT22;8100;50.994;4.538;2023-07-29T14:48:50;23.40;99.90
15991;DHT22;8100;50.994;4.538;2023-07-29T14:51:39;23.40;99.90
15991;DHT22;8100;50.994;4.538;2023-07-29T14:54:26;23.60;99.90
15991;DHT22;8100;50.994;4.538;2023-07-29T14:57:13;23.70;99.90
15991;DHT22;8100;50.994;4.538;2023-07-29T15:00:00;23.40;99.90
15991;DHT22;8100;50.994;4.538;2023-07-29T15:02:48;23.20;99.90
15991;DHT22;8100;50.994;4.538;2023-07-29T15:05:35;23.00;99.90
15991;DHT22;8100;50.994;4.538;2023-07-29T15:08:26;23.00;99.90
15991;DHT22;8100;50.994;4.538;2023-07-29T15:11:13;22.90;99.90
15991;DHT22;8100;50.994;4.538;2023-07-29T15:14:00;22.60;99.90
15991;DHT22;8100;50.994;4.538;2023-07-29T15:16:49;23.40;99.90
15991;DHT22;8100;50.994;4.538;2023-07-29T15:19:36;25.20;99.90
15991;DHT22;8100;50.994;4.538;2023-07-29T15:22:24;24.30;99.90
15991;DHT22;8100;50.994;4.538;2023-07-29T15:25:12;24.60;99.90
15991;DHT22;8100;50.994;4.538;2023-07-29T15:28:00;24.90;99.90
15991;DHT22;8100;50.994;4.538;2023-07-29T15:30:47;24.00;99.90
15991;DHT22;8100;50.994;4.538;2023-07-29T15:33:35;23.00;99.90
15991;DHT22;8100;50.994;4.538;2023-07-29T15:36:22;22.50;99.90
15991;DHT22;8100;50.994;4.538;2023-07-29T15:39:09;22.40;99.90
15991;DHT22;8100;50.994;4.538;2023-07-29T15:41:58;22.30;99.90
15991;DHT22;8100;50.994;4.538;2023-07-29T15:44:45;22.20;99.90
15991;DHT22;8100;50.994;4.538;2023-07-29T15:47:32;22.30;99.90
15991;DHT22;8100;50.994;4.538;2023-07-29T15:50:20;22.10;99.90
15991;DHT22;8100;50.994;4.538;2023-07-29T15:53:07;23.00;99.90
15991;DHT22;8100;50.994;4.538;2023-07-29T15:55:54;24.40;99.90
15991;DHT22;8100;50.994;4.538;2023-07-29T15:58:43;24.60;99.90
15991;DHT22;8100;50.994;4.538;2023-07-29T16:01:30;25.90;99.90
15991;DHT22;8100;50.994;4.538;2023-07-29T16:04:17;25.90;99.90
15991;DHT22;8100;50.994;4.538;2023-07-29T16:07:05;25.10;99.90
15991;DHT22;8100;50.994;4.538;2023-07-29T16:09:52;27.00;99.90
15991;DHT22;8100;50.994;4.538;2023-07-29T16:12:39;26.70;99.90
15991;DHT22;8100;50.994;4.538;2023-07-29T16:15:28;25.60;99.90
15991;DHT22;8100;50.994;4.538;2023-07-29T16:18:15;24.50;99.90
15991;DHT22;8100;50.994;4.538;2023-07-29T16:21:03;23.80;99.90
15991;DHT22;8100;50.994;4.538;2023-07-29T16:23:50;24.00;99.90
15991;DHT22;8100;50.994;4.538;2023-07-29T16:26:38;24.60;99.90
15991;DHT22;8100;50.994;4.538;2023-07-29T16:29:26;24.50;99.90
15991;DHT22;8100;50.994;4.538;2023-07-29T16:32:15;26.20;99.90
15991;DHT22;8100;50.994;4.538;2023-07-29T16:35:02;27.00;99.90
15991;DHT22;8100;50.994;4.538;2023-07-29T16:37:49;26.20;99.90
15991;DHT22;8100;50.994;4.538;2023-07-29T16:40:37;25.40;99.90
15991;DHT22;8100;50.994;4.538;2023-07-29T16:43:24;24.40;99.90
15991;DHT22;8100;50.994;4.538;2023-07-29T16:46:11;23.80;99.90
15991;DHT22;8100;50.994;4.538;2023-07-29T16:49:00;23.50;99.90
15991;DHT22;8100;50.994;4.538;2023-07-29T16:51:48;23.40;99.90
15991;DHT22;8100;50.994;4.538;2023-07-29T16:54:36;23.40;99.90
15991;DHT22;8100;50.994;4.538;2023-07-29T16:57:24;23.60;99.90
15991;DHT22;8100;50.994;4.538;2023-07-29T17:00:12;23.60;99.90
15991;DHT22;8100;50.994;4.538;2023-07-29T17:02:59;23.50;99.90
15991;DHT22;8100;50.994;4.538;2023-07-29T17:05:48;23.40;99.90
15991;DHT22;8100;50.994;4.538;2023-07-29T17:08:38;23.40;99.90
15991;DHT22;8100;50.994;4.538;2023-07-29T17:11:26;23.20;99.90
15991;DHT22;8100;50.994;4.538;2023-07-29T17:14:13;23.10;99.90
15991;DHT22;8100;50.994;4.538;2023-07-29T17:17:00;23.00;99.90
15991;DHT22;8100;50.994;4.538;2023-07-29T17:19:48;22.70;99.90
15991;DHT22;8100;50.994;4.538;2023-07-29T17:22:36;22.60;99.90
15991;DHT22;8100;50.994;4.538;2023-07-29T17:25:23;22.50;99.90
15991;DHT22;8100;50.994;4.538;2023-07-29T17:28:12;22.50;99.90
15991;DHT22;8100;50.994;4.538;2023-07-29T17:30:59;22.50;99.90
15991;DHT22;8100;50.994;4.538;2023-07-29T17:33:46;22.60;99.90
15991;DHT22;8100;50.994;4.538;2023-07-29T17:36:33;22.50;99.90
15991;DHT22;8100;50.994;4.538;2023-07-29T17:39:22;22.40;99.90
15991;DHT22;8100;50.994;4.538;2023-07-29T17:42:09;22.40;99.90
15991;DHT22;8100;50.994;4.538;2023-07-29T17:44:57;22.20;99.90
15991;DHT22;8100;50.994;4.538;2023-07-29T17:47:44;22.20;99.90
15991;DHT22;8100;50.994;4.538;2023-07-29T17:50:31;22.20;99.90
15991;DHT22;8100;50.994;4.538;2023-07-29T17:53:20;22.20;99.90
15991;DHT22;8100;50.994;4.538;2023-07-29T17:56:09;22.10;99.90